Time;durP1;ratioP1;P1;durP2;ratioP2;P2;SDS_P1;SDS_P2;PMS_P1;PMS_P2;Temp;Humidity;BMP_temperature;BMP_pressure;BME280_temperature;BME280_humidity;BME280_pressure;Samples;Min_cycle;Max_cycle;Signal;HPM_P1;HPM_P2
2023/09/14 00:01:28;;;;;;;11.25;8.38;;;26.90;44.90;;;;;;5055293;28;20025;-69
2023/09/14 00:03:55;;;;;;;11.73;8.45;;;27.10;44.10;;;;;;5027819;28;20496;-69
2023/09/14 00:06:22;;;;;;;15.15;8.48;;;26.90;42.80;;;;;;5048727;28;20064;-70
2023/09/14 00:08:50;;;;;;;9.25;7.25;;;27.00;43.80;;;;;;5045949;28;20020;-70
2023/09/14 00:11:19;;;;;;;11.52;8.27;;;27.50;42.60;;;;;;5043267;28;20059;-68
2023/09/14 00:13:47;;;;;;;12.48;7.97;;;27.10;43.80;;;;;;5048245;28;20061;-68
2023/09/14 00:16:14;;;;;;;10.88;8.20;;;27.30;44.00;;;;;;5047163;28;20040;-69
2023/09/14 00:18:42;;;;;;;16.67;8.30;;;27.10;43.30;;;;;;5045601;28;20478;-68
2023/09/14 00:21:09;;;;;;;13.45;7.50;;;27.20;43.30;;;;;;5046785;28;20819;-68
2023/09/14 00:23:37;;;;;;;9.73;7.28;;;27.70;42.40;;;;;;5055264;28;20040;-68
2023/09/14 00:26:04;;;;;;;11.52;7.78;;;27.90;43.70;;;;;;5048832;28;20040;-68
2023/09/14 00:28:32;;;;;;;11.73;8.73;;;27.80;42.40;;;;;;5048991;28;20080;-68
2023/09/14 00:30:59;;;;;;;11.38;7.32;;;28.40;41.10;;;;;;5049417;28;20040;-68
2023/09/14 00:33:26;;;;;;;13.05;8.38;;;27.70;42.80;;;;;;5050934;28;20033;-71
2023/09/14 00:35:54;;;;;;;10.38;8.10;;;28.10;42.40;;;;;;5044762;28;20047;-68
2023/09/14 00:38:22;;;;;;;8.77;7.40;;;27.60;41.90;;;;;;5043600;28;20027;-67
2023/09/14 00:40:51;;;;;;;11.10;8.02;;;27.60;42.10;;;;;;5052389;28;20024;-68
2023/09/14 00:43:19;;;;;;;13.95;8.90;;;27.90;42.70;;;;;;5043773;28;20024;-69
2023/09/14 00:45:47;;;;;;;10.27;8.13;;;28.10;41.70;;;;;;5042921;28;20033;-69
2023/09/14 00:48:16;;;;;;;11.50;7.55;;;27.90;43.10;;;;;;5045092;28;20032;-70
2023/09/14 00:50:44;;;;;;;10.32;6.85;;;28.60;42.10;;;;;;5047725;28;20033;-70
2023/09/14 00:53:15;;;;;;;11.85;7.43;;;29.00;41.70;;;;;;5043844;28;20162;-70
2023/09/14 00:55:43;;;;;;;10.85;6.72;;;29.20;44.00;;;;;;5039123;28;20036;-68
2023/09/14 00:58:15;;;;;;;10.32;6.20;;;29.40;40.00;;;;;;5040883;28;20371;-69
2023/09/14 01:00:44;;;;;;;11.52;5.85;;;29.20;40.70;;;;;;5041724;28;20067;-69
2023/09/14 01:03:13;;;;;;;11.40;6.05;;;29.00;40.70;;;;;;5042602;28;20021;-70
2023/09/14 01:05:44;;;;;;;11.80;6.28;;;28.60;41.10;;;;;;5049184;28;20032;-69
2023/09/14 01:08:11;;;;;;;8.27;5.70;;;29.00;41.60;;;;;;5057563;28;20039;-69
2023/09/14 01:10:39;;;;;;;9.88;6.28;;;29.60;40.60;;;;;;5055199;28;20060;-69
2023/09/14 01:13:14;;;;;;;11.15;6.47;;;29.20;39.80;;;;;;5050575;28;20033;-71
2023/09/14 01:15:53;;;;;;;12.90;6.18;;;29.50;40.60;;;;;;5056424;28;20079;-70
2023/09/14 01:18:47;;;;;;;7.00;5.57;;;30.00;40.00;;;;;;5051469;28;20029;-69
2023/09/14 01:21:41;;;;;;;8.43;5.45;;;30.10;40.20;;;;;;5050564;28;20079;-68
2023/09/14 01:24:41;;;;;;;6.47;4.85;;;30.40;39.10;;;;;;5053774;28;20061;-69
2023/09/14 01:27:09;;;;;;;10.18;5.15;;;29.80;38.80;;;;;;5051847;28;20044;-69
2023/09/14 01:29:36;;;;;;;6.68;4.57;;;29.70;38.70;;;;;;5050209;28;20098;-68
2023/09/14 01:32:04;;;;;;;3.85;3.00;;;29.60;38.60;;;;;;5050593;28;20025;-69
2023/09/14 01:34:31;;;;;;;6.18;3.10;;;29.70;38.40;;;;;;5052287;28;20078;-69
2023/09/14 01:37:00;;;;;;;4.72;3.53;;;29.70;38.70;;;;;;5049322;28;20382;-68
2023/09/14 01:39:29;;;;;;;6.97;3.60;;;29.90;38.60;;;;;;5034827;28;20024;-70
2023/09/14 01:41:57;;;;;;;7.38;3.88;;;30.10;39.90;;;;;;5041375;28;20531;-69
2023/09/14 01:44:26;;;;;;;4.88;3.53;;;30.10;38.30;;;;;;5041619;28;20044;-69
2023/09/14 01:46:55;;;;;;;6.97;3.80;;;30.50;40.70;;;;;;5038656;28;20032;-69
2023/09/14 01:49:22;;;;;;;7.70;3.15;;;30.70;39.30;;;;;;5057589;28;20293;-69
2023/09/14 01:51:50;;;;;;;5.75;3.70;;;30.90;35.80;;;;;;5051445;28;20137;-70
2023/09/14 01:54:17;;;;;;;6.05;3.55;;;30.80;38.00;;;;;;5053741;28;20059;-68
2023/09/14 01:56:45;;;;;;;5.65;3.33;;;30.70;38.70;;;;;;5053891;28;20088;-68
2023/09/14 01:59:12;;;;;;;5.25;3.40;;;31.00;37.10;;;;;;5044208;28;20025;-69
2023/09/14 02:01:39;;;;;;;6.70;3.38;;;31.00;37.00;;;;;;5046521;28;20328;-68
2023/09/14 02:04:07;;;;;;;4.97;3.05;;;31.00;36.90;;;;;;5045180;28;20028;-68
2023/09/14 02:06:34;;;;;;;4.72;3.15;;;31.00;36.20;;;;;;5058922;28;20374;-69
2023/09/14 02:09:02;;;;;;;7.63;3.72;;;31.00;37.30;;;;;;5059701;28;20036;-70
2023/09/14 02:11:29;;;;;;;4.72;3.42;;;31.10;36.50;;;;;;5054119;28;20055;-70
2023/09/14 02:13:56;;;;;;;7.72;3.45;;;31.30;36.30;;;;;;5055877;28;20039;-69
2023/09/14 02:16:24;;;;;;;8.02;3.42;;;31.10;35.70;;;;;;5058423;28;20078;-68
2023/09/14 02:18:51;;;;;;;5.80;3.55;;;30.50;35.40;;;;;;5058815;28;20477;-69
2023/09/14 02:21:18;;;;;;;8.85;3.05;;;30.50;38.10;;;;;;5055781;28;20039;-69
2023/09/14 02:23:46;;;;;;;6.45;2.67;;;30.90;38.40;;;;;;5059430;28;20506;-70
2023/09/14 02:26:13;;;;;;;13.65;3.50;;;31.00;35.30;;;;;;5057715;28;20082;-68
2023/09/14 02:28:40;;;;;;;8.05;3.35;;;31.00;36.30;;;;;;5053683;28;20397;-68
2023/09/14 02:31:08;;;;;;;34.25;4.93;;;30.90;34.50;;;;;;5059861;28;20029;-68
2023/09/14 02:33:37;;;;;;;5.90;2.80;;;31.00;35.20;;;;;;5056157;28;20031;-69
2023/09/14 02:36:05;;;;;;;5.00;2.85;;;30.60;35.10;;;;;;5057371;28;20043;-68
2023/09/14 02:38:32;;;;;;;6.53;2.95;;;30.70;37.00;;;;;;5052727;28;20021;-68
2023/09/14 02:41:00;;;;;;;7.85;3.15;;;31.20;36.00;;;;;;5054465;28;20029;-69
2023/09/14 02:43:27;;;;;;;6.00;2.70;;;31.70;35.10;;;;;;5057283;28;20025;-69
2023/09/14 02:45:54;;;;;;;4.97;3.08;;;31.90;35.70;;;;;;5063909;28;20028;-68
2023/09/14 02:48:22;;;;;;;6.15;2.95;;;32.10;34.40;;;;;;5055571;28;20055;-69
2023/09/14 02:50:49;;;;;;;7.22;2.55;;;32.00;35.80;;;;;;5059296;28;20094;-70
2023/09/14 02:53:16;;;;;;;7.47;2.50;;;32.30;36.50;;;;;;5067347;28;20074;-69
2023/09/14 02:55:44;;;;;;;10.32;2.72;;;32.60;35.50;;;;;;5056698;28;20036;-69
2023/09/14 02:58:11;;;;;;;5.05;2.33;;;32.20;32.70;;;;;;5055428;28;20053;-69
2023/09/14 03:00:39;;;;;;;7.68;2.70;;;32.10;35.20;;;;;;5063812;28;20096;-69
2023/09/14 03:03:11;;;;;;;6.18;2.70;;;32.40;35.40;;;;;;5059469;28;20029;-69
2023/09/14 03:05:39;;;;;;;5.72;1.70;;;32.40;34.40;;;;;;5072167;28;20024;-69
2023/09/14 03:08:06;;;;;;;2.97;2.00;;;32.50;33.80;;;;;;5063077;28;20110;-69
2023/09/14 03:10:34;;;;;;;5.90;1.80;;;32.50;33.20;;;;;;5066215;28;20110;-69
2023/09/14 03:13:01;;;;;;;5.32;1.95;;;32.60;33.30;;;;;;5049520;28;20040;-70
2023/09/14 03:15:28;;;;;;;2.67;1.65;;;32.60;32.70;;;;;;5058613;28;20025;-68
2023/09/14 03:17:56;;;;;;;5.50;2.05;;;32.70;33.50;;;;;;5054638;28;20420;-70
2023/09/14 03:20:23;;;;;;;6.22;2.33;;;32.80;32.70;;;;;;5053017;28;20451;-69
2023/09/14 03:22:50;;;;;;;6.35;2.13;;;32.60;32.10;;;;;;5054049;28;20045;-69
2023/09/14 03:25:18;;;;;;;2.65;1.80;;;32.40;32.20;;;;;;5054800;28;20025;-69
2023/09/14 03:27:45;;;;;;;5.70;2.13;;;32.30;32.40;;;;;;5055256;28;20358;-69
2023/09/14 03:30:13;;;;;;;4.47;1.92;;;32.20;31.90;;;;;;5061608;28;20361;-69
2023/09/14 03:32:40;;;;;;;4.68;1.80;;;32.00;32.60;;;;;;5071769;28;20449;-68
2023/09/14 03:35:07;;;;;;;4.15;2.30;;;32.20;33.40;;;;;;5064208;28;20029;-69
2023/09/14 03:37:35;;;;;;;3.65;1.75;;;32.20;30.80;;;;;;5041325;28;20558;-70
2023/09/14 03:40:07;;;;;;;3.35;1.52;;;32.30;32.20;;;;;;5056009;28;20366;-69
2023/09/14 03:42:35;;;;;;;4.55;1.70;;;32.50;31.20;;;;;;5063054;28;20063;-69
2023/09/14 03:45:04;;;;;;;4.70;2.00;;;32.50;31.70;;;;;;5054970;28;20024;-69
2023/09/14 03:47:31;;;;;;;6.82;2.00;;;32.80;31.40;;;;;;5043791;28;20023;-69
2023/09/14 03:49:59;;;;;;;7.18;2.20;;;32.80;30.20;;;;;;5054200;28;20075;-69
2023/09/14 03:52:26;;;;;;;5.88;2.45;;;32.70;30.80;;;;;;5058229;28;20450;-69
2023/09/14 03:54:53;;;;;;;8.85;2.30;;;32.60;31.10;;;;;;5053209;28;20033;-69
2023/09/14 03:57:21;;;;;;;5.20;2.20;;;32.50;31.00;;;;;;5049572;28;20044;-69
2023/09/14 03:59:48;;;;;;;6.43;2.00;;;32.40;30.70;;;;;;5053877;28;20040;-70
2023/09/14 04:02:15;;;;;;;7.60;2.33;;;32.30;31.50;;;;;;5047126;28;20082;-68
2023/09/14 04:04:43;;;;;;;11.38;2.28;;;32.10;31.40;;;;;;5053231;28;20021;-69
2023/09/14 04:07:11;;;;;;;3.45;2.17;;;32.00;33.60;;;;;;5052440;28;20032;-69
2023/09/14 04:09:41;;;;;;;3.53;1.90;;;31.90;32.20;;;;;;5054352;28;20032;-69
2023/09/14 04:12:09;;;;;;;2.70;1.75;;;32.10;30.00;;;;;;5045825;28;20012;-69
2023/09/14 04:14:36;;;;;;;3.55;1.73;;;31.40;28.80;;;;;;5048590;28;20390;-69
2023/09/14 04:17:04;;;;;;;3.20;1.92;;;31.30;29.00;;;;;;5045799;28;20132;-68
2023/09/14 04:19:31;;;;;;;8.80;1.92;;;30.90;28.70;;;;;;5054366;28;20056;-69
2023/09/14 04:21:59;;;;;;;1.88;1.05;;;30.70;28.90;;;;;;5040876;28;20377;-69
2023/09/14 04:24:27;;;;;;;4.60;1.67;;;31.00;27.50;;;;;;5047097;28;20025;-68
2023/09/14 04:26:54;;;;;;;4.13;1.50;;;30.90;29.10;;;;;;5052881;28;20078;-69
2023/09/14 04:29:21;;;;;;;4.38;1.48;;;30.90;29.60;;;;;;5047887;28;20024;-69
2023/09/14 04:31:49;;;;;;;4.82;1.80;;;31.00;29.40;;;;;;5055666;28;20135;-70
2023/09/14 04:34:16;;;;;;;2.28;1.58;;;31.00;30.00;;;;;;5044967;28;20021;-67
2023/09/14 04:36:44;;;;;;;2.58;1.60;;;31.10;29.50;;;;;;5053762;28;20124;-70
2023/09/14 04:39:11;;;;;;;4.30;1.60;;;31.30;29.60;;;;;;5052292;28;20031;-70
2023/09/14 04:41:38;;;;;;;3.17;1.88;;;31.20;29.40;;;;;;5051680;28;20017;-70
2023/09/14 04:44:06;;;;;;;5.80;1.98;;;30.70;29.30;;;;;;5053870;28;20052;-69
2023/09/14 04:46:34;;;;;;;3.00;2.00;;;30.30;30.80;;;;;;5043728;28;20022;-70
2023/09/14 04:49:01;;;;;;;3.40;1.88;;;30.70;31.60;;;;;;5053757;28;20037;-68
2023/09/14 04:51:28;;;;;;;3.78;1.75;;;30.70;30.40;;;;;;5059052;28;20017;-68
2023/09/14 04:53:56;;;;;;;4.65;2.00;;;30.70;31.30;;;;;;5050218;28;20112;-68
2023/09/14 04:56:23;;;;;;;4.97;1.90;;;30.60;30.00;;;;;;5052381;28;20471;-67
2023/09/14 04:58:50;;;;;;;5.35;1.75;;;30.70;31.80;;;;;;5045921;28;20021;-67
2023/09/14 05:01:18;;;;;;;2.63;1.48;;;30.70;32.40;;;;;;5056079;28;20028;-68
2023/09/14 05:03:46;;;;;;;7.20;2.10;;;30.80;31.20;;;;;;5053922;28;20009;-69
2023/09/14 05:06:13;;;;;;;7.07;1.75;;;30.90;31.60;;;;;;5046675;28;20072;-69
2023/09/14 05:08:40;;;;;;;7.00;2.30;;;30.80;31.60;;;;;;5048342;28;20066;-69
2023/09/14 05:11:08;;;;;;;5.20;2.00;;;30.80;31.90;;;;;;5054789;28;20157;-71
2023/09/14 05:13:35;;;;;;;3.88;1.77;;;30.80;31.10;;;;;;5050395;28;20394;-69
2023/09/14 05:16:03;;;;;;;4.57;1.65;;;30.70;30.30;;;;;;5051122;28;20204;-70
2023/09/14 05:18:30;;;;;;;7.90;2.05;;;30.60;30.60;;;;;;5058037;28;20060;-69
2023/09/14 05:20:58;;;;;;;4.53;1.80;;;30.50;32.30;;;;;;5054658;28;20021;-68
2023/09/14 05:23:25;;;;;;;4.60;1.80;;;30.20;29.90;;;;;;5038171;28;20037;-68
2023/09/14 05:25:52;;;;;;;4.30;1.90;;;30.20;30.20;;;;;;5055502;28;20091;-70
2023/09/14 05:28:20;;;;;;;4.25;2.05;;;29.40;30.10;;;;;;5048081;28;20041;-69
2023/09/14 05:30:47;;;;;;;4.82;1.90;;;28.80;30.70;;;;;;5058061;28;20020;-69
2023/09/14 05:33:14;;;;;;;5.25;2.30;;;28.70;31.40;;;;;;5047132;28;20108;-68
2023/09/14 05:35:43;;;;;;;6.93;1.92;;;28.90;31.30;;;;;;5049383;28;20105;-69
2023/09/14 05:38:11;;;;;;;5.80;1.92;;;29.00;31.10;;;;;;5050341;28;20092;-69
2023/09/14 05:40:38;;;;;;;5.28;2.00;;;29.20;31.40;;;;;;5045348;28;20032;-68
2023/09/14 05:43:05;;;;;;;4.32;1.70;;;29.40;31.50;;;;;;5046398;28;20021;-68
2023/09/14 05:45:33;;;;;;;2.83;1.60;;;29.50;31.10;;;;;;5046953;28;20409;-69
2023/09/14 05:48:04;;;;;;;2.83;1.60;;;29.50;31.20;;;;;;5049480;28;20460;-69
2023/09/14 05:50:35;;;;;;;2.67;1.85;;;29.60;30.60;;;;;;5048139;28;20025;-69
2023/09/14 05:53:03;;;;;;;4.22;1.65;;;29.60;30.60;;;;;;5050356;28;20147;-69
2023/09/14 05:55:30;;;;;;;3.90;1.50;;;29.60;31.30;;;;;;5052000;28;20055;-69
2023/09/14 05:57:57;;;;;;;3.67;1.70;;;29.70;30.30;;;;;;5049224;28;20037;-70
2023/09/14 06:00:25;;;;;;;1.92;1.55;;;29.50;30.30;;;;;;5048662;28;20035;-70
2023/09/14 06:02:52;;;;;;;4.28;1.80;;;29.40;30.80;;;;;;5052258;28;20504;-69
2023/09/14 06:05:20;;;;;;;3.20;1.70;;;29.50;31.50;;;;;;5052837;28;20119;-68
2023/09/14 06:07:47;;;;;;;6.15;1.70;;;29.40;30.50;;;;;;5052926;28;20489;-69
2023/09/14 06:10:14;;;;;;;4.72;1.40;;;29.40;30.60;;;;;;5045377;28;20520;-69
2023/09/14 06:12:42;;;;;;;3.63;1.77;;;29.20;30.70;;;;;;5050991;28;20432;-69
2023/09/14 06:15:09;;;;;;;3.50;1.48;;;29.20;31.20;;;;;;5046655;28;20021;-69
2023/09/14 06:17:37;;;;;;;4.30;1.65;;;29.10;30.50;;;;;;5047722;28;20045;-69
2023/09/14 06:20:05;;;;;;;3.22;1.75;;;29.00;30.30;;;;;;5062119;28;20029;-69
2023/09/14 06:22:33;;;;;;;3.15;1.45;;;28.90;31.40;;;;;;5044649;28;20055;-69
2023/09/14 06:25:00;;;;;;;3.35;1.60;;;28.90;31.40;;;;;;5045939;28;20029;-70
2023/09/14 06:27:27;;;;;;;3.97;1.80;;;28.90;31.40;;;;;;5049211;28;20028;-68
2023/09/14 06:29:55;;;;;;;2.75;1.63;;;28.80;31.40;;;;;;5052190;28;20150;-69
2023/09/14 06:32:22;;;;;;;5.38;1.90;;;28.70;31.80;;;;;;5056549;28;20035;-69
2023/09/14 06:34:49;;;;;;;4.05;1.92;;;28.50;30.60;;;;;;5046886;28;20371;-69
2023/09/14 06:37:18;;;;;;;4.20;1.85;;;28.20;30.80;;;;;;5048554;28;20047;-68
2023/09/14 06:39:45;;;;;;;10.60;2.72;;;28.10;31.10;;;;;;5047097;28;20037;-68
2023/09/14 06:42:13;;;;;;;2.80;2.20;;;28.10;32.00;;;;;;5049599;28;20482;-68
2023/09/14 06:44:40;;;;;;;5.05;3.08;;;28.10;32.30;;;;;;5044523;28;20032;-70
2023/09/14 06:47:07;;;;;;;6.63;4.22;;;28.10;32.60;;;;;;5049605;28;20036;-69
2023/09/14 06:49:34;;;;;;;7.88;5.57;;;27.80;32.90;;;;;;5047256;28;20024;-69
2023/09/14 06:52:03;;;;;;;16.40;10.48;;;27.60;33.40;;;;;;5047482;28;20029;-69
2023/09/14 06:54:30;;;;;;;19.98;14.32;;;27.60;34.60;;;;;;5051450;28;20496;-70
2023/09/14 06:56:58;;;;;;;23.60;17.10;;;27.40;35.60;;;;;;5051909;28;20105;-70
2023/09/14 06:59:25;;;;;;;24.27;17.00;;;27.30;36.40;;;;;;5044689;28;20024;-74
2023/09/14 07:01:52;;;;;;;34.28;18.05;;;26.90;37.00;;;;;;5047585;28;20033;-69
2023/09/14 07:04:20;;;;;;;40.15;19.23;;;26.70;39.10;;;;;;5052167;28;22056;-70
2023/09/14 07:06:49;;;;;;;41.60;19.15;;;26.50;40.40;;;;;;5053904;28;20178;-75
2023/09/14 07:09:16;;;;;;;39.55;18.05;;;26.30;41.70;;;;;;5049862;28;20031;-69
2023/09/14 07:11:44;;;;;;;51.80;17.58;;;26.10;42.50;;;;;;5050012;28;20117;-69
2023/09/14 07:14:11;;;;;;;34.00;16.58;;;26.00;43.50;;;;;;5051971;28;20028;-71
2023/09/14 07:16:39;;;;;;;33.08;15.90;;;25.90;44.20;;;;;;5049412;28;20062;-71
2023/09/14 07:19:06;;;;;;;35.50;14.00;;;25.70;44.80;;;;;;5032995;28;20032;-70
2023/09/14 07:21:37;;;;;;;31.17;14.15;;;25.60;45.00;;;;;;5051051;28;20032;-69
2023/09/14 07:24:07;;;;;;;24.25;12.27;;;25.40;45.30;;;;;;5051928;28;20048;-70
2023/09/14 07:26:40;;;;;;;26.45;12.32;;;25.30;45.70;;;;;;5040636;28;20375;-71
2023/09/14 07:29:07;;;;;;;27.13;12.55;;;25.10;46.10;;;;;;5049609;28;20072;-70
2023/09/14 07:31:35;;;;;;;24.92;12.05;;;25.10;46.20;;;;;;5049975;28;20021;-70
2023/09/14 07:34:03;;;;;;;19.52;10.70;;;25.00;46.30;;;;;;5047086;28;20028;-70
2023/09/14 07:36:30;;;;;;;23.40;11.82;;;24.80;46.50;;;;;;5046340;28;20494;-70
2023/09/14 07:38:59;;;;;;;27.20;11.38;;;24.70;46.70;;;;;;5027235;28;20028;-70
2023/09/14 07:41:26;;;;;;;24.95;11.25;;;24.60;46.90;;;;;;5047343;28;20037;-68
2023/09/14 07:43:53;;;;;;;21.50;10.88;;;24.60;47.10;;;;;;5043817;28;20483;-68
2023/09/14 07:46:21;;;;;;;21.92;10.30;;;24.50;47.30;;;;;;5047101;28;20025;-68
2023/09/14 07:48:48;;;;;;;21.52;10.18;;;24.40;47.50;;;;;;5041898;28;20040;-68
2023/09/14 07:51:15;;;;;;;21.08;9.57;;;24.30;47.50;;;;;;5033891;28;20312;-68
2023/09/14 07:53:43;;;;;;;20.77;9.27;;;24.20;47.50;;;;;;5049844;28;20041;-67
2023/09/14 07:56:10;;;;;;;17.83;9.35;;;24.10;47.60;;;;;;5043167;28;20040;-68
2023/09/14 07:58:37;;;;;;;23.58;10.18;;;24.00;47.60;;;;;;5040876;28;20068;-69
2023/09/14 08:01:05;;;;;;;15.60;9.38;;;23.90;47.80;;;;;;5042469;28;20051;-68
2023/09/14 08:03:32;;;;;;;18.33;8.63;;;23.70;48.20;;;;;;5048500;28;20021;-68
2023/09/14 08:05:59;;;;;;;19.33;9.13;;;23.60;48.30;;;;;;5044279;28;20476;-68
2023/09/14 08:08:27;;;;;;;15.77;9.35;;;23.50;48.70;;;;;;5040966;28;20027;-69
2023/09/14 08:10:55;;;;;;;13.18;8.68;;;23.40;49.00;;;;;;5047175;28;20025;-68
2023/09/14 08:13:23;;;;;;;17.67;8.60;;;23.30;49.30;;;;;;5050000;28;20079;-68
2023/09/14 08:15:51;;;;;;;16.98;8.98;;;23.30;49.30;;;;;;5051258;28;20064;-68
2023/09/14 08:18:19;;;;;;;15.48;9.25;;;23.30;49.40;;;;;;5038130;28;20083;-68
2023/09/14 08:20:49;;;;;;;12.90;8.07;;;23.20;49.20;;;;;;5045750;28;20035;-69
2023/09/14 08:23:16;;;;;;;18.67;8.20;;;23.20;49.00;;;;;;5047429;28;20681;-69
2023/09/14 08:25:45;;;;;;;11.50;7.72;;;23.00;49.50;;;;;;5044715;28;20070;-69
2023/09/14 08:28:15;;;;;;;15.23;8.35;;;22.90;49.00;;;;;;5049153;28;20047;-68
2023/09/14 08:30:43;;;;;;;13.25;7.50;;;22.80;49.10;;;;;;5040729;28;20039;-69
2023/09/14 08:33:11;;;;;;;17.90;7.88;;;22.80;49.40;;;;;;5044432;28;20093;-69
2023/09/14 08:35:39;;;;;;;20.88;8.38;;;22.60;49.80;;;;;;5048847;28;20387;-68
2023/09/14 08:38:07;;;;;;;28.02;7.80;;;22.60;49.60;;;;;;5057203;28;20032;-68
2023/09/14 08:40:35;;;;;;;32.55;9.00;;;22.50;49.70;;;;;;5049895;28;20020;-70
2023/09/14 08:43:03;;;;;;;24.65;8.27;;;22.60;49.90;;;;;;5039597;28;20037;-69
2023/09/14 08:45:33;;;;;;;25.23;7.95;;;22.40;49.70;;;;;;5044042;28;20044;-69
2023/09/14 08:48:03;;;;;;;24.23;8.48;;;22.30;50.30;;;;;;5041771;28;20029;-68
2023/09/14 08:50:39;;;;;;;18.17;7.82;;;22.20;50.20;;;;;;5049340;28;20024;-68
2023/09/14 08:53:07;;;;;;;36.95;8.52;;;22.10;50.00;;;;;;5046392;28;20435;-68
2023/09/14 08:55:36;;;;;;;22.15;8.00;;;22.00;50.30;;;;;;5046015;28;20115;-69
2023/09/14 08:58:04;;;;;;;15.93;6.40;;;21.90;50.40;;;;;;5042668;28;20025;-68
2023/09/14 09:00:32;;;;;;;12.00;6.43;;;21.80;49.00;;;;;;5028138;28;20044;-68
2023/09/14 09:02:59;;;;;;;13.07;6.20;;;21.90;48.90;;;;;;5044899;28;20494;-68
2023/09/14 09:05:27;;;;;;;11.57;6.13;;;21.80;48.80;;;;;;5042012;28;20020;-68
2023/09/14 09:07:56;;;;;;;9.50;6.03;;;21.70;49.00;;;;;;5045259;28;20035;-68
2023/09/14 09:10:24;;;;;;;14.98;6.28;;;21.60;49.30;;;;;;5042878;28;20074;-68
2023/09/14 09:13:00;;;;;;;11.10;6.22;;;21.50;49.70;;;;;;5041724;28;20765;-70
2023/09/14 09:15:28;;;;;;;12.68;7.10;;;21.40;50.20;;;;;;5055130;28;20029;-70
2023/09/14 09:18:06;;;;;;;14.15;7.35;;;21.20;51.30;;;;;;5044567;28;20127;-68
2023/09/14 09:20:34;;;;;;;11.82;7.07;;;21.20;51.80;;;;;;5040406;28;20366;-68
2023/09/14 09:23:02;;;;;;;17.00;7.25;;;21.20;52.00;;;;;;5039363;28;20053;-68
2023/09/14 09:25:42;;;;;;;15.63;6.80;;;21.10;52.40;;;;;;5045236;28;20107;-68
2023/09/14 09:28:09;;;;;;;25.45;8.30;;;21.10;52.70;;;;;;5042875;28;20391;-68
2023/09/14 09:30:39;;;;;;;44.13;7.85;;;21.00;52.50;;;;;;5039653;28;20158;-69
2023/09/14 09:33:07;;;;;;;54.00;10.05;;;20.90;52.60;;;;;;5041053;28;20076;-67
2023/09/14 09:35:35;;;;;;;56.53;11.73;;;20.80;52.10;;;;;;5048198;28;20086;-68
2023/09/14 09:38:13;;;;;;;47.67;9.77;;;20.60;52.70;;;;;;5046389;28;20021;-68
2023/09/14 09:40:45;;;;;;;40.35;8.95;;;20.40;53.10;;;;;;5040195;28;20017;-68
2023/09/14 09:43:17;;;;;;;34.80;7.68;;;20.20;53.60;;;;;;5038431;28;20025;-69
2023/09/14 09:45:46;;;;;;;34.83;8.07;;;20.00;53.90;;;;;;5042635;28;20232;-70
2023/09/14 09:48:14;;;;;;;17.35;6.93;;;19.90;53.90;;;;;;5035684;28;20431;-70
2023/09/14 09:50:41;;;;;;;26.35;7.15;;;19.80;54.10;;;;;;5038191;28;21073;-68
2023/09/14 09:53:14;;;;;;;16.58;5.88;;;19.80;54.50;;;;;;5039162;28;20021;-68
2023/09/14 09:55:45;;;;;;;14.88;6.00;;;19.80;54.60;;;;;;5039234;28;20068;-69
2023/09/14 09:58:16;;;;;;;17.85;6.15;;;19.70;55.20;;;;;;5031575;28;20024;-69
2023/09/14 10:00:45;;;;;;;12.50;6.00;;;19.60;55.50;;;;;;5047640;28;20128;-68
2023/09/14 10:03:18;;;;;;;11.52;5.95;;;19.50;56.00;;;;;;5051012;28;20466;-69
2023/09/14 10:05:45;;;;;;;11.05;6.13;;;19.60;55.90;;;;;;5009259;28;20031;-69
2023/09/14 10:08:22;;;;;;;13.02;5.45;;;19.70;54.40;;;;;;5027941;28;20021;-69
2023/09/14 10:10:53;;;;;;;9.70;5.43;;;19.80;54.90;;;;;;5039730;28;20033;-69
2023/09/14 10:13:28;;;;;;;12.25;5.40;;;19.60;55.00;;;;;;5007940;28;20037;-71
2023/09/14 10:15:56;;;;;;;11.88;6.03;;;19.40;56.20;;;;;;5016781;28;20053;-71
2023/09/14 10:18:25;;;;;;;9.95;5.60;;;19.30;57.00;;;;;;5048428;28;20028;-69
2023/09/14 10:20:55;;;;;;;11.40;5.60;;;19.10;57.20;;;;;;5043785;28;20347;-69
2023/09/14 10:23:24;;;;;;;9.32;5.63;;;19.00;57.90;;;;;;5049939;28;20518;-69
2023/09/14 10:25:53;;;;;;;10.95;6.05;;;18.80;58.30;;;;;;5055331;28;20508;-68
2023/09/14 10:28:24;;;;;;;12.05;6.47;;;18.80;58.60;;;;;;5055154;28;20029;-69
2023/09/14 10:30:54;;;;;;;12.23;6.60;;;18.70;59.10;;;;;;4993185;28;20284;-69
2023/09/14 10:33:22;;;;;;;10.68;6.10;;;18.50;59.60;;;;;;5014716;28;20104;-69
2023/09/14 10:35:51;;;;;;;11.38;6.43;;;18.50;60.50;;;;;;4984612;28;20029;-68
2023/09/14 10:38:23;;;;;;;15.00;8.65;;;18.50;60.50;;;;;;5031315;28;20074;-71
2023/09/14 10:40:53;;;;;;;17.73;10.43;;;18.40;60.50;;;;;;5002694;28;20075;-68
2023/09/14 10:43:21;;;;;;;18.45;10.25;;;18.30;60.60;;;;;;5035444;28;20576;-69
2023/09/14 10:45:49;;;;;;;15.98;9.18;;;18.30;60.70;;;;;;5051500;28;20043;-68
2023/09/14 10:48:20;;;;;;;16.88;9.80;;;18.20;61.40;;;;;;5052192;28;20490;-69
2023/09/14 10:50:50;;;;;;;23.40;12.38;;;18.20;61.80;;;;;;5048887;28;20033;-69
2023/09/14 10:53:21;;;;;;;21.58;13.23;;;18.10;61.70;;;;;;5045929;28;20044;-69
2023/09/14 10:55:49;;;;;;;20.92;12.55;;;18.00;62.00;;;;;;5056575;28;20460;-68
2023/09/14 10:58:17;;;;;;;19.65;13.38;;;17.90;62.40;;;;;;5050956;28;20017;-67
2023/09/14 11:00:45;;;;;;;24.42;13.60;;;17.80;62.90;;;;;;5040550;28;20028;-69
2023/09/14 11:03:13;;;;;;;27.73;15.82;;;17.70;63.20;;;;;;5040969;28;20051;-70
2023/09/14 11:05:47;;;;;;;29.38;15.07;;;17.60;62.80;;;;;;5045376;28;20107;-69
2023/09/14 11:08:16;;;;;;;23.27;13.25;;;17.50;63.10;;;;;;5042370;28;20124;-70
2023/09/14 11:10:58;;;;;;;21.90;12.80;;;17.50;64.00;;;;;;5050512;28;20032;-68
2023/09/14 11:13:30;;;;;;;19.90;12.20;;;17.50;65.00;;;;;;5042978;28;20032;-70
2023/09/14 11:16:18;;;;;;;19.67;10.95;;;17.50;65.30;;;;;;5023475;28;20032;-68
2023/09/14 11:18:45;;;;;;;14.88;8.43;;;17.40;66.00;;;;;;5034414;28;20029;-69
2023/09/14 11:21:34;;;;;;;18.17;8.10;;;17.30;66.50;;;;;;5024069;28;20309;-67
2023/09/14 11:24:03;;;;;;;15.38;7.90;;;17.30;67.10;;;;;;5036163;28;20529;-68
2023/09/14 11:26:32;;;;;;;17.92;8.25;;;17.20;67.00;;;;;;5036944;28;20112;-69
2023/09/14 11:29:00;;;;;;;15.20;8.45;;;17.20;67.60;;;;;;5025704;28;20397;-70
2023/09/14 11:31:35;;;;;;;17.38;8.80;;;17.10;67.60;;;;;;5030145;28;20073;-68
2023/09/14 11:34:14;;;;;;;19.05;9.23;;;17.00;68.20;;;;;;5028596;28;20410;-71
2023/09/14 11:36:44;;;;;;;18.02;9.25;;;16.90;69.20;;;;;;4996139;28;20033;-68
2023/09/14 11:39:13;;;;;;;19.77;10.20;;;16.80;69.00;;;;;;5047877;28;20064;-69
2023/09/14 11:41:49;;;;;;;19.38;12.15;;;16.70;69.00;;;;;;5049435;28;20021;-69
2023/09/14 11:44:17;;;;;;;22.83;12.77;;;16.80;68.70;;;;;;5053666;28;20082;-68
2023/09/14 11:46:49;;;;;;;29.92;13.45;;;16.70;68.70;;;;;;5046870;28;20027;-72
2023/09/14 11:49:21;;;;;;;23.00;13.50;;;16.70;68.50;;;;;;5051128;28;20020;-68
2023/09/14 11:51:55;;;;;;;26.75;14.23;;;16.60;68.90;;;;;;5056035;28;20366;-69
2023/09/14 11:54:22;;;;;;;27.65;14.80;;;16.60;69.50;;;;;;5052736;28;20119;-68
2023/09/14 11:56:50;;;;;;;30.10;14.13;;;16.50;69.70;;;;;;5058436;28;20044;-68
2023/09/14 11:59:31;;;;;;;25.52;14.13;;;16.50;70.60;;;;;;5059548;28;20040;-67
2023/09/14 12:02:00;;;;;;;27.02;14.32;;;16.40;70.50;;;;;;5055969;28;20084;-70
2023/09/14 12:04:31;;;;;;;23.23;13.32;;;16.30;70.80;;;;;;5058305;28;20374;-68
2023/09/14 12:06:58;;;;;;;20.60;13.07;;;16.30;71.40;;;;;;5054394;28;20036;-68
2023/09/14 12:09:42;;;;;;;24.15;13.45;;;16.30;71.70;;;;;;5060755;28;20132;-68
2023/09/14 12:12:24;;;;;;;23.13;13.23;;;16.30;72.20;;;;;;5056486;28;20143;-70
2023/09/14 12:14:51;;;;;;;26.30;14.63;;;16.20;72.70;;;;;;5048490;28;20035;-68
2023/09/14 12:17:20;;;;;;;29.20;13.93;;;16.20;72.50;;;;;;5042645;28;20083;-68
2023/09/14 12:19:56;;;;;;;22.95;12.55;;;16.40;72.20;;;;;;5052258;28;20020;-68
2023/09/14 12:22:27;;;;;;;20.45;10.88;;;16.30;72.80;;;;;;5070808;28;20139;-68
2023/09/14 12:24:55;;;;;;;21.98;10.25;;;16.20;72.70;;;;;;5057800;28;20393;-69
2023/09/14 12:27:23;;;;;;;27.90;10.40;;;16.10;72.70;;;;;;5057571;28;20084;-70
2023/09/14 12:29:51;;;;;;;20.88;10.70;;;16.00;73.10;;;;;;5049406;28;20068;-68
2023/09/14 12:32:19;;;;;;;20.08;10.63;;;15.90;73.30;;;;;;5049673;28;20024;-68
2023/09/14 12:34:47;;;;;;;24.70;11.10;;;15.80;73.50;;;;;;5047872;28;20024;-69
2023/09/14 12:37:19;;;;;;;28.10;11.10;;;15.80;73.90;;;;;;5049365;28;20037;-67
2023/09/14 12:39:51;;;;;;;28.40;11.80;;;15.80;74.50;;;;;;5060524;28;20017;-68
2023/09/14 12:42:20;;;;;;;24.70;10.70;;;15.80;75.00;;;;;;5038340;28;20421;-69
2023/09/14 12:44:48;;;;;;;32.40;12.00;;;15.70;74.80;;;;;;5046592;28;20070;-68
2023/09/14 12:47:16;;;;;;;32.22;11.65;;;15.70;74.70;;;;;;5047439;28;20032;-68